This is the latest recevied weather packets stored in our database for station/object IZ6SAC-13. If no packets are shown the sender has not sent any weather packets the latest 10 day(s).
| Time | Temp. | Humidity | Pressure | Rain* | Wind** | Luminosity | Snow |
|---|---|---|---|---|---|---|---|
| 1777281330 | 25° C | 40% | 1019 hPa | 0 mm | - | - | - |
| 1777279534 | 23.33° C | 48% | 1019.1 hPa | 0 mm | - | - | - |
| 1777277736 | 22.78° C | 46% | 1019 hPa | 0 mm | - | - | - |
| 1777275920 | 22.78° C | 41% | 1018.7 hPa | 0 mm | - | - | - |
| 1777274125 | 22.78° C | 41% | 1018.9 hPa | 0 mm | - | - | - |
| 1777272332 | 21.67° C | 48% | 1019 hPa | 0 mm | - | - | - |
| 1777270517 | 20° C | 48% | 1018.9 hPa | 0 mm | - | - | - |
| 1777268720 | 16.67° C | 56% | 1018.7 hPa | 0 mm | - | - | - |
| 1777266924 | 15.56° C | 60% | 1018.5 hPa | 0 mm | - | - | - |
| 1777265130 | 14.44° C | 61% | 1018.1 hPa | 0 mm | - | - | - |
| 1777263333 | 15° C | 59% | 1017.9 hPa | 0 mm | - | - | - |
| 1777261516 | 14.44° C | 60% | 1017.9 hPa | 0 mm | - | - | - |
| 1777259720 | 15° C | 60% | 1017.7 hPa | 0 mm | - | - | - |
| 1777257923 | 14.44° C | 61% | 1017.9 hPa | 0 mm | - | - | - |
| 1777256126 | 15° C | 58% | 1017.8 hPa | 0 mm | - | - | - |
| 1777254330 | 15.56° C | 58% | 1017.8 hPa | 0 mm | - | - | - |
| 1777252533 | 13.89° C | 65% | 1017.9 hPa | 0 mm | - | - | - |
| 1777250717 | 14.44° C | 62% | 1018.2 hPa | 0 mm | - | - | - |
| 1777248920 | 15° C | 63% | 1018.3 hPa | 0 mm | - | - | - |
| 1777247126 | 15.56° C | 60% | 1018.3 hPa | 0 mm | - | - | - |
| 1777245331 | 15.56° C | 62% | 1018.3 hPa | 0 mm | - | - | - |
| 1777243516 | 15.56° C | 68% | 1018.1 hPa | 0 mm | - | - | - |
| 1777241720 | 15.56° C | 67% | 1018.1 hPa | 0 mm | - | - | - |
| 1777239925 | 15° C | 70% | 1018.2 hPa | 0 mm | - | - | - |
| 1777238130 | 15° C | 70% | 1018.4 hPa | 0 mm | - | - | - |
* Rain latest hour (hover to see other rain measurements)
** Current wind speed in m/s (hover to see current wind gust speed)